createdAt,value
2023-04-25T00:04:10.845Z,5.57
2023-04-25T00:09:14.477Z,3.97
2023-04-25T00:14:17.839Z,4.43
2023-04-25T00:19:22.571Z,3.00
2023-04-25T00:24:25.944Z,3.67
2023-04-25T00:29:29.317Z,5.13
2023-04-25T00:34:34.301Z,4.30
2023-04-25T00:39:37.800Z,4.45
2023-04-25T00:44:41.861Z,3.72
2023-04-25T00:49:47.337Z,3.78
2023-04-25T00:54:50.780Z,4.85
2023-04-25T00:59:55.254Z,4.35
2023-04-25T01:05:00.402Z,3.67
2023-04-25T01:10:04.854Z,3.58
2023-04-25T01:15:09.321Z,3.45
2023-04-25T01:20:16.913Z,4.78
2023-04-25T01:25:23.285Z,3.60
2023-04-25T01:30:28.441Z,2.83
2023-04-25T01:35:33.477Z,3.83
2023-04-25T01:40:42.826Z,5.00
2023-04-25T01:45:46.442Z,4.20
2023-04-25T01:50:49.985Z,4.07
2023-04-25T01:55:54.767Z,5.43
2023-04-25T02:01:00.089Z,5.65
2023-04-25T02:06:09.352Z,4.93
2023-04-25T02:11:17.942Z,5.10
2023-04-25T02:16:31.718Z,4.28
2023-04-25T02:21:37.587Z,3.80
2023-04-25T02:26:42.349Z,4.05
2023-04-25T02:31:46.309Z,6.65
2023-04-25T02:36:51.654Z,3.53
2023-04-25T02:41:56.622Z,3.33
2023-04-25T02:47:00.236Z,4.22
2023-04-25T02:52:06.463Z,8.00
2023-04-25T02:57:11.710Z,4.22
2023-04-25T03:02:15.708Z,4.43
2023-04-25T03:07:19.838Z,4.50
2023-04-25T03:12:27.137Z,4.22
2023-04-25T03:17:31.006Z,4.05
2023-04-25T03:22:35.749Z,7.35
2023-04-25T03:27:40.613Z,4.28
2023-04-25T03:32:44.621Z,4.07
2023-04-25T03:37:51.950Z,3.80
2023-04-25T03:43:02.461Z,4.00
2023-04-25T03:48:06.782Z,3.63
2023-04-25T03:53:10.764Z,2.95
2023-04-25T03:58:37.756Z,5.68
2023-04-25T04:03:41.750Z,5.47
2023-04-25T04:08:45.942Z,4.95
2023-04-25T04:13:50.955Z,5.13
2023-04-25T04:18:56.298Z,4.75
2023-04-25T04:24:01.027Z,3.83
2023-04-25T04:34:18.842Z,3.35
2023-04-25T04:39:22.964Z,4.65
2023-04-25T04:44:40.138Z,5.63
2023-04-25T04:50:00.584Z,4.13
2023-04-25T04:55:15.738Z,4.60
2023-04-25T05:00:41.293Z,3.35
2023-04-25T05:06:03.341Z,6.38
2023-04-25T05:11:13.944Z,10.40
2023-04-25T05:16:48.116Z,5.93
2023-04-25T05:22:00.881Z,8.13
2023-04-25T05:27:15.801Z,7.45
2023-04-25T06:09:17.245Z,5.60
2023-04-25T06:14:21.745Z,7.45
2023-04-25T06:19:27.412Z,7.35
2023-04-25T06:24:32.466Z,8.45
2023-04-25T06:29:36.016Z,5.68
2023-04-25T06:34:39.466Z,6.93
2023-04-25T06:39:44.976Z,8.00
2023-04-25T06:44:48.482Z,4.38
2023-04-25T06:49:52.542Z,5.97
2023-04-25T06:54:58.511Z,10.68
2023-04-25T07:00:23.276Z,8.05
2023-04-25T07:05:29.054Z,13.13
2023-04-25T07:10:34.041Z,9.43
2023-04-25T07:15:37.572Z,8.57
2023-04-25T07:20:41.911Z,6.72
2023-04-25T07:25:46.738Z,5.47
2023-04-25T07:35:56.817Z,9.45
2023-04-25T07:41:01.964Z,11.70
2023-04-25T07:46:06.155Z,15.23
2023-04-25T07:51:11.309Z,13.45
2023-04-25T07:56:16.606Z,17.75
2023-04-25T08:01:23.071Z,10.32
2023-04-25T08:06:39.185Z,15.82
2023-04-25T08:11:52.609Z,15.75
2023-04-25T08:17:02.131Z,18.40
2023-04-25T08:22:05.700Z,14.57
2023-04-25T08:27:22.534Z,15.15
2023-04-25T08:32:26.284Z,15.98
2023-04-25T08:37:46.500Z,19.75
2023-04-25T08:42:55.394Z,17.13
2023-04-25T08:48:00.195Z,14.27
2023-04-25T08:53:07.449Z,16.85
2023-04-25T08:58:13.236Z,14.83
2023-04-25T09:03:17.123Z,12.70
2023-04-25T09:08:21.130Z,14.65
2023-04-25T09:13:30.116Z,8.45
2023-04-25T09:18:57.976Z,13.88
2023-04-25T09:24:01.374Z,12.27
2023-04-25T09:29:09.959Z,8.75
2023-04-25T09:34:18.154Z,7.15
2023-04-25T09:39:31.469Z,10.70
2023-04-25T09:44:54.730Z,9.18
2023-04-25T09:49:59.375Z,9.30
2023-04-25T09:55:03.318Z,7.93
2023-04-25T10:00:14.142Z,8.55
2023-04-25T10:05:22.455Z,6.78
2023-04-25T10:10:31.470Z,8.35
2023-04-25T10:15:40.114Z,11.18
2023-04-25T10:20:44.009Z,8.02
2023-04-25T10:25:47.894Z,7.68
2023-04-25T10:31:03.717Z,6.10
2023-04-25T10:36:16.159Z,9.90
2023-04-25T10:41:22.221Z,6.82
2023-04-25T10:46:30.854Z,8.35
2023-04-25T10:56:45.793Z,10.52
2023-04-25T11:01:55.711Z,6.88
2023-04-25T11:07:21.900Z,6.40
2023-04-25T11:12:27.398Z,11.55
2023-04-25T11:17:32.964Z,9.45
2023-04-25T11:22:36.521Z,9.18
2023-04-25T11:27:53.079Z,7.95
2023-04-25T11:32:58.664Z,7.93
2023-04-25T11:38:02.100Z,8.25
2023-04-25T11:43:05.754Z,9.85
2023-04-25T11:48:10.933Z,11.80
2023-04-25T11:53:14.709Z,10.45
2023-04-25T11:58:18.058Z,10.38
2023-04-25T12:03:27.226Z,9.60
2023-04-25T12:08:30.752Z,7.47
2023-04-25T12:13:34.356Z,6.75
2023-04-25T12:18:39.948Z,7.82
2023-04-25T12:23:44.330Z,8.35
2023-04-25T12:28:49.430Z,7.68
2023-04-25T12:33:54.430Z,9.95
2023-04-25T12:38:57.954Z,7.28
2023-04-25T12:44:01.329Z,7.85
2023-04-25T12:49:17.729Z,11.73
2023-04-25T12:54:22.309Z,11.23
2023-04-25T12:59:25.694Z,7.82
2023-04-25T13:04:30.777Z,8.63
2023-04-25T13:09:34.468Z,10.65
2023-04-25T13:14:37.806Z,6.82
2023-04-25T13:19:42.593Z,8.07
2023-04-25T13:24:45.926Z,7.18
2023-04-25T13:29:49.279Z,8.05
2023-04-25T13:34:55.038Z,9.75
2023-04-25T13:39:59.593Z,7.03
2023-04-25T13:45:03.757Z,8.23
2023-04-25T13:50:10.725Z,9.93
2023-04-25T13:55:14.148Z,7.07
2023-04-25T14:00:19.484Z,6.53
2023-04-25T14:05:24.563Z,6.75
2023-04-25T14:10:28.075Z,8.63
2023-04-25T14:15:33.692Z,7.00
2023-04-25T14:20:38.568Z,7.35
2023-04-25T14:25:42.916Z,7.95
2023-04-25T14:30:46.400Z,6.57
2023-04-25T14:35:51.307Z,8.23
2023-04-25T14:40:55.063Z,5.30
2023-04-25T14:45:58.698Z,7.70
2023-04-25T14:51:03.619Z,8.50
2023-04-25T14:56:08.213Z,6.43
2023-04-25T15:01:12.367Z,6.90
2023-04-25T15:06:17.357Z,5.45
2023-04-25T15:11:23.112Z,8.00
2023-04-25T15:16:26.572Z,6.60
2023-04-25T15:21:32.464Z,7.50
2023-04-25T15:26:36.345Z,7.65
2023-04-25T15:31:39.925Z,4.55
2023-04-25T15:36:44.843Z,6.60
2023-04-25T15:41:49.131Z,8.30
2023-04-25T15:46:54.966Z,5.85
2023-04-25T15:51:59.990Z,5.03
2023-04-25T15:57:03.464Z,5.70
2023-04-25T16:02:07.066Z,8.25
2023-04-25T16:07:11.901Z,5.50
2023-04-25T16:12:15.565Z,4.65
2023-04-25T16:17:18.985Z,9.25
2023-04-25T16:22:23.802Z,6.45
2023-04-25T16:27:27.182Z,7.15
2023-04-25T16:32:30.806Z,5.60
2023-04-25T16:37:35.620Z,4.35
2023-04-25T16:42:39.039Z,6.20
2023-04-25T16:47:42.479Z,5.38
2023-04-25T16:52:47.335Z,5.07
2023-04-25T16:57:50.763Z,5.75
2023-04-25T17:02:54.296Z,6.32
2023-04-25T17:07:59.164Z,5.97
2023-04-25T17:13:02.555Z,5.97
2023-04-25T17:18:06.317Z,7.18
2023-04-25T17:23:11.627Z,6.93
2023-04-25T17:28:15.070Z,8.70
2023-04-25T17:33:18.534Z,5.15
2023-04-25T17:38:23.308Z,8.27
2023-04-25T17:43:27.671Z,4.00
2023-04-25T17:48:31.753Z,5.13
2023-04-25T17:53:36.898Z,5.20
2023-04-25T17:58:40.387Z,6.63
2023-04-25T18:03:45.666Z,7.68
2023-04-25T18:08:51.065Z,7.82
2023-04-25T18:13:54.585Z,8.20
2023-04-25T18:19:05.228Z,10.63
2023-04-25T18:24:12.429Z,8.00
2023-04-25T18:29:31.454Z,9.03
2023-04-25T18:34:36.268Z,8.48
2023-04-25T18:39:41.815Z,8.50
2023-04-25T18:44:46.356Z,8.07
2023-04-25T18:49:51.061Z,9.27
2023-04-25T18:54:55.837Z,8.95
2023-04-25T18:59:59.195Z,10.13
2023-04-25T19:05:02.914Z,8.40
2023-04-25T19:10:09.699Z,9.05
2023-04-25T19:15:13.304Z,7.35
2023-04-25T19:20:17.058Z,8.43
2023-04-25T19:25:22.434Z,9.80
2023-04-25T19:30:26.310Z,8.65
2023-04-25T19:35:32.540Z,8.45
2023-04-25T19:40:38.240Z,12.20
2023-04-25T19:45:41.611Z,14.23
2023-04-25T19:50:45.236Z,11.00
2023-04-25T19:55:49.973Z,9.52
2023-04-25T20:00:53.420Z,9.35
2023-04-25T20:05:57.199Z,8.18
2023-04-25T20:11:01.937Z,8.70
2023-04-25T20:16:05.776Z,6.15
2023-04-25T20:21:09.552Z,8.95
2023-04-25T20:26:14.624Z,10.20
2023-04-25T20:31:18.634Z,8.63
2023-04-25T20:36:22.050Z,7.30
2023-04-25T20:41:26.961Z,6.35
2023-04-25T20:46:30.743Z,5.97
2023-04-25T20:51:34.915Z,6.35
2023-04-25T20:56:40.161Z,8.13
2023-04-25T21:01:43.937Z,12.32
2023-04-25T21:06:47.594Z,8.55
2023-04-25T21:11:52.328Z,6.65
2023-04-25T21:16:58.447Z,9.82
2023-04-25T21:22:03.652Z,6.07
2023-04-25T21:27:08.841Z,5.93
2023-04-25T21:32:16.623Z,5.72
2023-04-25T21:42:24.704Z,6.22
2023-04-25T21:47:28.174Z,5.45
2023-04-25T21:52:31.785Z,8.07
2023-04-25T21:57:36.583Z,7.00
2023-04-25T22:02:40.165Z,7.90
2023-04-25T22:07:43.963Z,5.53
2023-04-25T22:12:50.900Z,5.90
2023-04-25T22:17:55.983Z,7.80
2023-04-25T22:22:59.595Z,5.40
2023-04-25T22:28:04.349Z,8.95
2023-04-25T22:33:07.876Z,8.75
2023-04-25T22:38:11.387Z,7.82
2023-04-25T22:43:16.149Z,9.50
2023-04-25T22:48:19.601Z,6.55
2023-04-25T22:53:22.987Z,7.85
2023-04-25T22:58:27.825Z,8.70
2023-04-25T23:03:32.651Z,5.78
2023-04-25T23:08:36.193Z,6.78
2023-04-25T23:13:40.926Z,7.53
2023-04-25T23:18:44.361Z,8.60
2023-04-25T23:23:47.744Z,6.47
2023-04-25T23:28:52.849Z,9.00
2023-04-25T23:33:56.433Z,10.10
2023-04-25T23:39:01.996Z,7.55
2023-04-25T23:44:08.813Z,6.18
2023-04-25T23:49:12.192Z,7.93
2023-04-25T23:54:15.891Z,6.82
2023-04-25T23:59:20.999Z,5.78
